Aviation Digital Data Service (ADDS)

Output produced by METARs form (2352 UTC 18 December 2018)
found at http://aviationweather.gov/metar/data/
 
KLCH 182322Z 1900/1924 VRB04KT P6SM BKN150 
     FM191500 VRB06KT 6SM -SHRA OVC030 
     FM191700 VRB06KT 6SM -SHRA OVC015 
     PROB30 1921/1924 2SM TSRA OVC009CB